Time;durP1;ratioP1;P1;durP2;ratioP2;P2;SDS_P1;SDS_P2;PMS_P1;PMS_P2;Temp;Humidity;BMP_temperature;BMP_pressure;BME280_temperature;BME280_humidity;BME280_pressure;Samples;Min_cycle;Max_cycle;Signal;HPM_P1;HPM_P2
2022/05/28 00:01:13;;;;;;;1.80;0.45;;;17.70;54.20;;;;;;5092060;28;20036;-65
2022/05/28 00:03:40;;;;;;;2.65;0.30;;;17.70;54.20;;;;;;5073938;28;20064;-70
2022/05/28 00:06:12;;;;;;;0.93;0.30;;;17.70;54.20;;;;;;5073765;28;20086;-70
2022/05/28 00:08:38;;;;;;;1.13;0.20;;;17.70;54.20;;;;;;5076627;28;20048;-71
2022/05/28 00:11:12;;;;;;;1.73;0.40;;;17.70;54.20;;;;;;5090594;28;20056;-70
2022/05/28 00:13:37;;;;;;;2.15;0.20;;;17.70;54.30;;;;;;5090685;28;20456;-70
2022/05/28 00:16:03;;;;;;;2.03;0.38;;;17.70;54.30;;;;;;5090711;28;20079;-71
2022/05/28 00:18:31;;;;;;;2.10;0.30;;;17.60;54.20;;;;;;5090468;28;20039;-70
2022/05/28 00:20:57;;;;;;;1.60;0.30;;;17.60;54.20;;;;;;5090303;28;20060;-70
2022/05/28 00:23:23;;;;;;;3.45;0.90;;;17.60;54.30;;;;;;5091813;28;20040;-70
2022/05/28 00:25:49;;;;;;;3.40;0.28;;;17.60;54.30;;;;;;5090699;28;20115;-71
2022/05/28 00:28:14;;;;;;;2.00;0.30;;;17.60;54.20;;;;;;5091792;28;20138;-70
2022/05/28 00:30:40;;;;;;;1.23;0.28;;;17.60;54.30;;;;;;5090562;28;20032;-70
2022/05/28 00:33:06;;;;;;;0.90;0.25;;;17.60;54.30;;;;;;5090569;28;20085;-69
2022/05/28 00:35:32;;;;;;;2.67;0.30;;;17.60;54.30;;;;;;5090698;28;20384;-69
2022/05/28 00:37:58;;;;;;;1.58;0.20;;;17.60;54.30;;;;;;5091662;28;20504;-70
2022/05/28 00:40:26;;;;;;;2.55;0.30;;;17.60;54.30;;;;;;5090163;28;20131;-71
2022/05/28 00:42:56;;;;;;;0.98;0.30;;;17.60;54.30;;;;;;5087623;28;20217;-71
2022/05/28 00:45:22;;;;;;;2.20;0.45;;;17.60;54.30;;;;;;5070319;28;20520;-71
2022/05/28 00:47:51;;;;;;;2.72;0.38;;;17.60;54.30;;;;;;5069853;28;20162;-70
2022/05/28 00:50:17;;;;;;;2.17;0.20;;;17.60;54.30;;;;;;5069946;28;20036;-70
2022/05/28 00:52:44;;;;;;;1.88;0.20;;;17.60;54.30;;;;;;5070063;28;20072;-70
2022/05/28 00:55:11;;;;;;;0.90;0.20;;;17.60;54.30;;;;;;5071009;28;20036;-65
2022/05/28 00:57:40;;;;;;;0.80;0.30;;;17.60;54.30;;;;;;5073524;28;20171;-70
2022/05/28 01:00:08;;;;;;;2.03;0.20;;;17.60;54.30;;;;;;5075048;28;20032;-71
2022/05/28 01:03:13;;;;;;;0.85;0.17;;;17.60;54.40;;;;;;5073847;28;20048;-69
2022/05/28 01:06:04;;;;;;;1.52;0.20;;;17.60;54.40;;;;;;5073535;28;20087;-70
2022/05/28 01:11:39;;;;;;;1.20;0.28;;;17.60;54.50;;;;;;5130264;27;20124;-71
2022/05/28 01:16:55;;;;;;;1.77;0.20;;;17.60;54.60;;;;;;5130261;27;20800;-66
2022/05/28 01:27:49;;;;;;;1.15;0.20;;;17.50;54.60;;;;;;5130293;27;20132;-70
2022/05/28 01:30:17;;;;;;;2.00;0.30;;;17.50;54.60;;;;;;5128981;28;20475;-71
2022/05/28 01:32:48;;;;;;;1.08;0.20;;;17.50;54.60;;;;;;5129134;28;20065;-70
2022/05/28 01:35:17;;;;;;;2.05;0.22;;;17.50;54.70;;;;;;5129236;28;20073;-69
2022/05/28 01:37:45;;;;;;;1.67;0.10;;;17.50;54.70;;;;;;5128861;28;20039;-69
2022/05/28 01:40:12;;;;;;;2.13;0.20;;;17.50;54.80;;;;;;5128850;28;20092;-69
2022/05/28 01:42:43;;;;;;;1.40;0.20;;;17.40;54.70;;;;;;5129990;27;20050;-71
2022/05/28 01:45:13;;;;;;;1.65;0.17;;;17.40;54.80;;;;;;5128845;28;20109;-69
2022/05/28 01:47:39;;;;;;;2.10;0.30;;;17.40;54.80;;;;;;5129997;27;20078;-69
2022/05/28 01:50:07;;;;;;;1.88;0.20;;;17.40;54.80;;;;;;5130053;27;20078;-70
2022/05/28 01:52:33;;;;;;;1.40;0.15;;;17.40;54.90;;;;;;5130005;27;20031;-70
2022/05/28 01:55:01;;;;;;;2.35;0.10;;;17.40;54.90;;;;;;5129814;27;20074;-70
2022/05/28 01:57:27;;;;;;;1.38;0.10;;;17.40;54.90;;;;;;5129729;27;20047;-69
2022/05/28 01:59:53;;;;;;;1.85;0.30;;;17.40;54.90;;;;;;5128423;28;20039;-69
2022/05/28 02:02:19;;;;;;;1.25;0.17;;;17.40;54.90;;;;;;5129752;27;20046;-70
2022/05/28 02:04:46;;;;;;;1.10;0.30;;;17.40;55.00;;;;;;5128661;28;20047;-67
2022/05/28 02:07:13;;;;;;;0.65;0.10;;;17.30;54.90;;;;;;5128185;28;20043;-70
2022/05/28 02:09:45;;;;;;;2.58;0.30;;;17.40;55.00;;;;;;5128570;28;20043;-71
2022/05/28 02:15:48;;;;;;;1.42;0.32;;;17.30;55.10;;;;;;5130341;27;20395;-65
2022/05/28 02:23:59;;;;;;;1.95;0.20;;;17.30;55.20;;;;;;5130317;27;20394;-71
2022/05/28 02:26:32;;;;;;;1.10;0.10;;;17.30;55.20;;;;;;5130341;27;20079;-71
2022/05/28 02:29:00;;;;;;;1.42;0.30;;;17.30;55.20;;;;;;5129258;28;20076;-70
2022/05/28 02:34:04;;;;;;;1.85;0.22;;;17.20;55.20;;;;;;5152874;27;1166034;-69
2022/05/28 02:36:30;;;;;;;1.08;0.30;;;17.20;55.20;;;;;;5153451;27;20094;-69
2022/05/28 02:38:56;;;;;;;1.02;0.10;;;17.20;55.20;;;;;;5171728;27;20026;-69
2022/05/28 02:41:22;;;;;;;1.45;0.20;;;17.20;55.20;;;;;;5171710;27;20454;-68
2022/05/28 02:43:48;;;;;;;1.23;0.35;;;17.20;55.20;;;;;;5152878;27;20606;-70
2022/05/28 02:46:14;;;;;;;0.90;0.20;;;17.20;55.20;;;;;;5153139;27;20046;-70
2022/05/28 02:48:40;;;;;;;1.33;0.20;;;17.20;55.20;;;;;;5171423;27;20034;-70
2022/05/28 02:51:08;;;;;;;0.93;0.10;;;17.20;55.30;;;;;;5152871;27;20050;-64
2022/05/28 02:53:34;;;;;;;0.82;0.20;;;17.10;55.20;;;;;;5152729;27;20120;-70
2022/05/28 02:56:03;;;;;;;2.38;0.28;;;17.20;55.30;;;;;;5153041;27;20046;-71
2022/05/28 02:58:29;;;;;;;1.02;0.32;;;17.10;55.30;;;;;;5171385;27;20393;-69
2022/05/28 03:00:56;;;;;;;0.68;0.10;;;17.10;55.30;;;;;;5152584;27;20648;-70
2022/05/28 03:03:24;;;;;;;0.52;0.10;;;17.10;55.30;;;;;;5152693;27;20053;-68
2022/05/28 03:05:51;;;;;;;1.35;0.10;;;17.10;55.30;;;;;;5171329;27;20030;-72
2022/05/28 03:08:18;;;;;;;0.77;0.10;;;17.10;55.40;;;;;;5152791;27;20137;-69
2022/05/28 03:10:44;;;;;;;1.85;0.22;;;17.10;55.40;;;;;;5152479;27;20053;-69
2022/05/28 03:13:13;;;;;;;2.72;0.20;;;17.10;55.40;;;;;;5152421;27;20034;-69
2022/05/28 03:15:39;;;;;;;2.28;0.10;;;17.10;55.40;;;;;;5170906;27;20036;-71
2022/05/28 03:18:05;;;;;;;1.88;0.20;;;17.10;55.40;;;;;;5152582;27;20047;-67
2022/05/28 03:20:31;;;;;;;0.80;0.10;;;17.10;55.40;;;;;;5152554;27;20046;-69
2022/05/28 03:22:58;;;;;;;2.22;0.20;;;17.00;55.40;;;;;;5170941;27;20050;-69
2022/05/28 03:25:24;;;;;;;1.38;0.20;;;17.10;55.40;;;;;;5152441;27;20070;-70
2022/05/28 03:27:50;;;;;;;0.95;0.20;;;17.00;55.40;;;;;;5152387;27;20047;-69
2022/05/28 03:30:18;;;;;;;1.25;0.30;;;17.10;55.50;;;;;;5152365;27;20050;-71
2022/05/28 03:32:44;;;;;;;2.42;0.20;;;17.00;55.40;;;;;;5151701;27;20061;-67
2022/05/28 03:35:10;;;;;;;0.77;0.10;;;17.00;56.10;;;;;;5170656;27;20525;-64
2022/05/28 03:37:36;;;;;;;2.00;0.10;;;17.00;55.40;;;;;;5170674;27;20038;-69
2022/05/28 03:40:02;;;;;;;2.08;0.10;;;17.00;55.40;;;;;;5151847;27;20034;-69
2022/05/28 03:42:28;;;;;;;1.08;0.30;;;17.00;55.50;;;;;;5170448;27;20042;-70
2022/05/28 03:44:53;;;;;;;1.20;0.10;;;17.00;55.40;;;;;;5159418;27;20541;-65
2022/05/28 03:47:19;;;;;;;3.03;0.20;;;17.00;55.40;;;;;;5120790;27;20042;-69
2022/05/28 03:49:45;;;;;;;1.52;0.10;;;17.00;55.40;;;;;;5137966;27;20042;-69
2022/05/28 03:52:11;;;;;;;3.10;0.20;;;17.00;55.50;;;;;;5137980;27;20126;-70
2022/05/28 03:54:43;;;;;;;2.72;0.20;;;17.00;55.50;;;;;;5137841;27;20230;-69
2022/05/28 03:57:13;;;;;;;1.33;0.30;;;17.00;55.50;;;;;;5156300;27;20049;-69
2022/05/28 03:59:42;;;;;;;0.82;0.10;;;17.00;55.50;;;;;;5137994;27;20054;-70
2022/05/28 04:02:07;;;;;;;1.95;0.20;;;17.10;55.60;;;;;;5156196;27;20550;-69
2022/05/28 04:04:33;;;;;;;1.67;0.63;;;17.00;55.50;;;;;;5137686;27;20047;-70
2022/05/28 04:07:00;;;;;;;1.08;0.13;;;17.00;55.50;;;;;;5156139;27;20042;-66
2022/05/28 04:09:27;;;;;;;2.92;0.20;;;17.00;55.50;;;;;;5137823;27;20030;-69
2022/05/28 04:11:53;;;;;;;1.42;0.10;;;16.90;55.40;;;;;;5137707;27;20615;-69
2022/05/28 04:14:19;;;;;;;1.08;0.20;;;16.90;55.40;;;;;;5137706;27;20031;-70
2022/05/28 04:16:47;;;;;;;0.55;0.10;;;16.90;55.40;;;;;;5137641;27;20432;-64
2022/05/28 04:19:13;;;;;;;1.85;0.10;;;16.90;55.40;;;;;;5137314;27;20039;-71
2022/05/28 04:21:39;;;;;;;2.15;0.20;;;16.90;55.40;;;;;;5155910;27;20023;-71
2022/05/28 04:24:05;;;;;;;1.92;0.20;;;17.00;55.50;;;;;;5137235;27;20496;-69
2022/05/28 04:26:31;;;;;;;1.20;0.10;;;16.90;55.40;;;;;;5155851;27;20504;-69
2022/05/28 04:28:56;;;;;;;0.45;0.10;;;16.90;55.40;;;;;;5155638;27;20038;-70
2022/05/28 04:31:22;;;;;;;1.40;0.10;;;16.90;55.40;;;;;;5155669;27;20078;-72
2022/05/28 04:33:50;;;;;;;0.95;0.30;;;17.00;55.50;;;;;;5155384;27;20047;-69
2022/05/28 04:36:17;;;;;;;1.60;0.20;;;16.90;55.40;;;;;;5137289;27;20441;-70
2022/05/28 04:38:42;;;;;;;2.25;0.10;;;16.90;55.40;;;;;;5137172;27;20064;-70
2022/05/28 04:41:09;;;;;;;2.13;0.15;;;16.90;55.40;;;;;;5155537;27;20031;-69
2022/05/28 04:43:34;;;;;;;0.98;0.10;;;16.90;55.40;;;;;;5155235;27;20386;-69
2022/05/28 04:46:00;;;;;;;1.38;0.20;;;16.90;55.40;;;;;;5136843;27;20039;-70
2022/05/28 04:48:26;;;;;;;2.05;0.30;;;16.90;55.40;;;;;;5136735;27;20043;-69
2022/05/28 04:50:52;;;;;;;1.50;0.20;;;16.90;55.30;;;;;;5137118;27;20086;-69
2022/05/28 04:53:18;;;;;;;1.45;0.20;;;16.90;55.30;;;;;;5119616;27;20125;-69
2022/05/28 04:55:45;;;;;;;1.85;0.13;;;16.90;55.30;;;;;;5135620;27;20027;-69
2022/05/28 04:58:12;;;;;;;1.33;0.20;;;16.90;55.30;;;;;;5155021;27;20423;-69
2022/05/28 05:00:39;;;;;;;1.23;0.13;;;16.90;55.30;;;;;;5136510;27;20474;-69
2022/05/28 05:03:05;;;;;;;1.27;0.20;;;16.90;55.30;;;;;;5136681;27;20076;-69
2022/05/28 05:05:31;;;;;;;1.02;0.10;;;17.00;55.30;;;;;;5136525;27;20042;-69
2022/05/28 05:07:57;;;;;;;1.25;0.15;;;16.90;55.20;;;;;;5154880;27;20035;-70
2022/05/28 05:10:23;;;;;;;1.60;0.40;;;16.90;55.20;;;;;;5136401;27;20038;-69
2022/05/28 05:12:48;;;;;;;1.65;0.20;;;16.90;55.20;;;;;;5136207;27;20122;-71
2022/05/28 05:15:14;;;;;;;1.83;0.20;;;16.90;55.20;;;;;;5136107;27;20064;-69
2022/05/28 05:17:40;;;;;;;1.58;0.10;;;16.90;55.20;;;;;;5136480;27;20045;-69
2022/05/28 05:20:08;;;;;;;2.15;0.10;;;16.90;55.20;;;;;;5136372;27;20386;-68
2022/05/28 05:22:33;;;;;;;0.93;0.20;;;16.90;55.20;;;;;;5154730;27;20054;-69
2022/05/28 05:24:59;;;;;;;1.98;0.10;;;16.90;55.10;;;;;;5136300;27;20042;-71
2022/05/28 05:27:25;;;;;;;3.30;0.47;;;16.90;55.10;;;;;;5136052;27;20047;-69
2022/05/28 05:29:50;;;;;;;1.23;0.17;;;16.90;55.10;;;;;;5135909;27;20046;-65
2022/05/28 05:32:16;;;;;;;2.00;0.30;;;16.90;55.10;;;;;;5154554;27;20041;-64
2022/05/28 05:34:45;;;;;;;1.20;0.17;;;16.90;55.10;;;;;;5135714;27;20053;-69
2022/05/28 05:37:11;;;;;;;1.35;0.10;;;16.90;55.10;;;;;;5154324;27;20030;-69
2022/05/28 05:39:36;;;;;;;2.05;0.20;;;16.90;55.00;;;;;;5136053;27;20034;-64
2022/05/28 05:42:02;;;;;;;1.05;0.20;;;16.90;55.00;;;;;;5154325;27;20363;-72
2022/05/28 05:44:31;;;;;;;1.23;0.20;;;16.90;55.00;;;;;;5154052;27;20109;-69
2022/05/28 05:46:56;;;;;;;1.27;0.30;;;16.90;54.90;;;;;;5135705;27;20071;-68
2022/05/28 05:49:25;;;;;;;2.47;0.20;;;16.90;54.90;;;;;;5135777;27;20078;-64
2022/05/28 05:51:52;;;;;;;2.08;0.20;;;16.90;54.90;;;;;;5154143;27;20070;-70
2022/05/28 05:54:19;;;;;;;1.67;0.35;;;17.00;54.90;;;;;;5154085;27;20047;-69
2022/05/28 05:56:45;;;;;;;1.67;0.20;;;16.90;54.90;;;;;;5154077;27;20060;-68
2022/05/28 05:59:11;;;;;;;2.53;0.52;;;17.00;54.90;;;;;;5154012;27;20043;-69
2022/05/28 06:01:37;;;;;;;0.80;0.20;;;17.00;54.80;;;;;;5135405;27;20078;-66
2022/05/28 06:04:03;;;;;;;2.15;0.20;;;17.00;54.80;;;;;;5135703;27;20064;-66
2022/05/28 06:06:29;;;;;;;1.75;0.20;;;16.90;54.70;;;;;;5153655;27;20050;-70
2022/05/28 06:08:55;;;;;;;2.10;0.30;;;17.00;54.70;;;;;;5153976;27;20026;-69
2022/05/28 06:11:20;;;;;;;3.17;0.30;;;17.00;54.60;;;;;;5153754;27;20562;-69
2022/05/28 06:13:46;;;;;;;1.25;0.17;;;17.00;54.60;;;;;;5135159;27;20142;-69
2022/05/28 06:16:12;;;;;;;1.55;0.20;;;17.00;54.60;;;;;;5135203;27;20034;-70
2022/05/28 06:18:37;;;;;;;1.38;0.20;;;17.00;54.60;;;;;;5135204;27;20042;-69
2022/05/28 06:21:03;;;;;;;2.75;0.30;;;17.00;54.60;;;;;;5135315;27;20035;-70
2022/05/28 06:23:30;;;;;;;1.50;0.25;;;17.00;54.60;;;;;;5135297;27;20038;-69
2022/05/28 06:25:56;;;;;;;1.73;0.20;;;17.00;54.60;;;;;;5153599;27;20073;-69
2022/05/28 06:28:25;;;;;;;1.52;0.30;;;17.00;54.60;;;;;;5135236;27;20077;-64
2022/05/28 06:30:51;;;;;;;2.22;0.20;;;17.00;54.60;;;;;;5134980;27;20069;-67
2022/05/28 06:33:18;;;;;;;0.70;0.17;;;17.00;54.50;;;;;;5134763;27;20082;-70
2022/05/28 06:35:43;;;;;;;1.77;0.20;;;17.00;54.50;;;;;;5134988;27;20527;-68
2022/05/28 06:38:09;;;;;;;2.40;0.38;;;17.00;54.50;;;;;;5135179;27;20125;-68
2022/05/28 06:40:36;;;;;;;2.65;0.47;;;17.00;54.40;;;;;;5135222;27;20417;-66
2022/05/28 06:43:03;;;;;;;2.45;0.28;;;17.00;54.40;;;;;;5153408;27;20038;-69
2022/05/28 06:45:29;;;;;;;1.95;0.20;;;17.00;54.40;;;;;;5135044;27;20081;-68
2022/05/28 06:47:55;;;;;;;2.10;0.40;;;17.00;54.40;;;;;;5134862;27;20066;-69
2022/05/28 06:53:08;;;;;;;3.08;0.55;;;17.00;54.30;;;;;;5134533;27;20047;-67
2022/05/28 06:55:35;;;;;;;1.92;0.20;;;17.00;54.30;;;;;;5134880;27;20038;-70
2022/05/28 06:58:02;;;;;;;1.00;0.10;;;17.10;54.30;;;;;;5134681;27;20050;-69
2022/05/28 07:00:28;;;;;;;1.17;0.28;;;17.00;54.20;;;;;;5134757;27;20041;-67
2022/05/28 07:02:54;;;;;;;1.92;0.30;;;17.00;54.10;;;;;;5153204;27;20042;-70
2022/05/28 07:05:22;;;;;;;1.63;0.30;;;17.00;54.20;;;;;;5134972;27;20046;-70
2022/05/28 07:07:48;;;;;;;2.70;0.32;;;17.00;54.20;;;;;;5134875;27;20042;-69
2022/05/28 07:10:13;;;;;;;2.83;0.30;;;17.00;54.20;;;;;;5134700;27;20447;-65
2022/05/28 07:12:39;;;;;;;2.55;0.20;;;17.00;54.30;;;;;;5134518;27;20079;-68
2022/05/28 07:15:06;;;;;;;1.55;0.20;;;17.00;54.20;;;;;;5134644;27;20038;-69
2022/05/28 07:17:32;;;;;;;2.05;0.20;;;17.00;54.30;;;;;;5134574;27;20043;-64
2022/05/28 07:19:58;;;;;;;1.60;0.20;;;17.00;54.30;;;;;;5136999;27;20046;-69
2022/05/28 07:22:23;;;;;;;2.92;0.47;;;17.00;54.30;;;;;;5138776;27;20074;-71
2022/05/28 07:24:49;;;;;;;1.88;0.20;;;17.00;54.20;;;;;;5138519;27;20045;-68
2022/05/28 07:27:15;;;;;;;7.22;0.55;;;17.00;54.10;;;;;;5156004;27;20042;-68
2022/05/28 07:29:41;;;;;;;3.47;0.22;;;17.00;54.20;;;;;;5154784;27;20094;-68
2022/05/28 07:32:07;;;;;;;3.65;0.43;;;17.10;54.70;;;;;;5155405;27;20494;-67
2022/05/28 07:34:34;;;;;;;2.38;0.20;;;17.10;54.90;;;;;;5155660;27;20058;-67
2022/05/28 07:37:00;;;;;;;2.65;0.30;;;17.10;55.00;;;;;;5155570;27;20026;-68
2022/05/28 07:39:26;;;;;;;1.77;0.30;;;17.10;55.00;;;;;;5155882;27;20424;-68
2022/05/28 07:41:54;;;;;;;4.35;0.30;;;17.10;55.10;;;;;;5155499;27;20122;-68
2022/05/28 07:44:20;;;;;;;2.78;0.30;;;17.20;55.00;;;;;;5138060;27;20065;-69
2022/05/28 07:46:46;;;;;;;3.10;0.47;;;17.20;54.90;;;;;;5129607;27;20046;-67
2022/05/28 07:49:15;;;;;;;4.40;0.50;;;17.20;54.80;;;;;;5171307;27;20389;-66
2022/05/28 07:51:40;;;;;;;4.63;0.73;;;17.30;55.00;;;;;;5157663;27;20043;-68
2022/05/28 07:54:06;;;;;;;3.50;0.40;;;17.30;55.00;;;;;;5142130;27;20110;-69
2022/05/28 07:56:32;;;;;;;7.88;0.40;;;17.40;54.70;;;;;;5142854;27;20035;-71
2022/05/28 07:58:59;;;;;;;4.07;0.28;;;17.30;54.90;;;;;;5170098;27;20080;-70
2022/05/28 08:01:29;;;;;;;3.20;0.50;;;17.30;55.00;;;;;;5136704;27;20042;-68
2022/05/28 08:03:55;;;;;;;4.95;0.50;;;17.40;55.10;;;;;;5156235;27;20061;-69
2022/05/28 08:06:22;;;;;;;3.30;0.60;;;17.40;55.60;;;;;;5158263;27;20035;-70
2022/05/28 08:08:52;;;;;;;3.53;1.02;;;17.30;55.20;;;;;;5137753;27;20083;-70
2022/05/28 08:11:18;;;;;;;3.85;0.50;;;17.40;55.40;;;;;;5156223;27;20083;-70
2022/05/28 08:13:47;;;;;;;4.53;0.80;;;17.40;55.30;;;;;;5142639;27;20031;-70
2022/05/28 08:16:14;;;;;;;3.35;0.50;;;17.50;55.30;;;;;;5142432;27;20070;-68
2022/05/28 08:18:40;;;;;;;4.50;0.55;;;17.50;55.30;;;;;;5116614;27;20193;-65
2022/05/28 08:23:53;;;;;;;3.08;0.30;;;17.60;55.40;;;;;;5134831;27;20039;-69
2022/05/28 08:26:19;;;;;;;4.93;0.50;;;17.60;55.20;;;;;;5116416;27;20091;-70
2022/05/28 08:28:47;;;;;;;3.80;0.65;;;17.70;55.10;;;;;;5139642;27;20076;-64
2022/05/28 08:31:14;;;;;;;2.60;1.00;;;17.80;55.00;;;;;;5137143;27;20070;-63
2022/05/28 08:33:40;;;;;;;2.55;0.40;;;17.90;54.80;;;;;;5136846;27;20405;-69
2022/05/28 08:36:06;;;;;;;5.57;0.70;;;18.00;54.60;;;;;;5156927;27;20042;-69
2022/05/28 08:38:32;;;;;;;4.35;0.73;;;18.10;54.50;;;;;;5139389;27;20541;-68
2022/05/28 08:41:03;;;;;;;7.10;0.43;;;18.10;54.20;;;;;;5135042;27;20039;-65
2022/05/28 08:43:34;;;;;;;3.60;0.50;;;18.20;54.10;;;;;;5145038;27;20058;-69
2022/05/28 08:46:00;;;;;;;;;;;18.20;54.00;;;;;;5153051;27;20486;-67
2022/05/28 08:48:34;;;;;;;7.10;0.80;;;18.20;53.80;;;;;;5176363;27;20010;-70
2022/05/28 08:51:05;;;;;;;5.28;0.50;;;18.20;54.10;;;;;;5153027;27;20167;-69
2022/05/28 08:53:38;;;;;;;8.57;0.63;;;18.10;54.00;;;;;;5157447;27;20047;-70
2022/05/28 08:56:05;;;;;;;5.80;0.68;;;18.20;54.00;;;;;;5155112;27;20045;-70
2022/05/28 08:58:33;;;;;;;5.15;0.65;;;18.30;53.70;;;;;;5157667;27;20043;-69
2022/05/28 09:01:19;;;;;;;4.20;0.60;;;18.40;53.40;;;;;;5136538;27;20043;-69
2022/05/28 09:03:57;;;;;;;5.45;0.40;;;18.50;53.00;;;;;;5155112;27;20056;-69
2022/05/28 09:09:08;;;;;;;2.33;0.30;;;18.50;52.90;;;;;;5130251;27;20382;-65
2022/05/28 09:11:59;;;;;;;5.25;0.52;;;18.60;52.80;;;;;;5130249;27;20391;-65
2022/05/28 09:14:33;;;;;;;;;;;18.60;52.50;;;;;;5129220;28;20483;-67
2022/05/28 09:17:06;;;;;;;2.72;0.55;;;18.60;52.40;;;;;;5128728;27;19915;-70
2022/05/28 09:19:41;;;;;;;3.92;0.35;;;18.60;52.50;;;;;;5128249;28;20043;-66
2022/05/28 09:22:07;;;;;;;3.25;0.77;;;18.70;53.10;;;;;;5129482;27;20081;-71
2022/05/28 09:24:33;;;;;;;2.13;0.50;;;18.80;52.20;;;;;;5128976;28;20040;-70
2022/05/28 09:38:40;;;;;;;2.28;0.43;;;18.70;51.90;;;;;;5129543;27;20905;-64
2022/05/28 09:41:22;;;;;;;3.53;0.28;;;19.00;51.70;;;;;;5128729;28;20047;-71
2022/05/28 09:46:32;;;;;;;2.75;0.60;;;19.10;51.40;;;;;;5152986;27;1160734;-68
2022/05/28 09:51:38;;;;;;;3.65;0.88;;;19.00;51.30;;;;;;5130269;27;20414;-68
2022/05/28 09:54:23;;;;;;;6.22;0.70;;;18.90;51.30;;;;;;5126613;28;20440;-66
2022/05/28 09:57:10;;;;;;;2.75;0.40;;;18.90;51.40;;;;;;5132210;27;20541;-69
2022/05/28 10:05:09;;;;;;;5.68;0.70;;;19.10;50.40;;;;;;5146411;27;1169888;-71
2022/05/28 10:07:41;;;;;;;4.15;0.50;;;19.30;50.10;;;;;;5150700;27;20151;-71
2022/05/28 10:10:29;;;;;;;3.70;0.55;;;19.30;49.90;;;;;;5152129;27;20042;-70
2022/05/28 10:13:16;;;;;;;10.45;0.90;;;19.40;50.00;;;;;;5132054;27;20039;-68
2022/05/28 10:15:52;;;;;;;4.95;0.40;;;19.50;49.80;;;;;;5140679;27;20059;-70
2022/05/28 10:18:23;;;;;;;5.55;0.60;;;19.50;49.60;;;;;;5142162;27;20394;-70
2022/05/28 10:21:10;;;;;;;8.02;0.75;;;19.40;49.60;;;;;;5162112;27;20433;-67
2022/05/28 10:23:39;;;;;;;8.25;1.13;;;19.50;49.60;;;;;;5152669;27;20398;-67
2022/05/28 10:26:10;;;;;;;5.80;0.50;;;19.40;49.50;;;;;;5171640;27;20042;-66
2022/05/28 10:28:53;;;;;;;4.93;0.85;;;19.40;49.40;;;;;;5152270;27;20043;-67
2022/05/28 10:31:28;;;;;;;3.30;0.75;;;19.40;49.30;;;;;;5169307;27;20039;-67
2022/05/28 10:33:56;;;;;;;3.85;0.63;;;19.40;49.30;;;;;;5152709;27;20509;-66
2022/05/28 10:36:25;;;;;;;2.58;0.60;;;19.30;49.40;;;;;;5152315;27;20046;-67
2022/05/28 10:38:52;;;;;;;3.90;0.47;;;19.20;49.40;;;;;;5152588;27;20070;-67
2022/05/28 10:41:22;;;;;;;3.95;0.68;;;19.20;49.50;;;;;;5152509;27;20286;-67
2022/05/28 10:43:49;;;;;;;4.00;0.90;;;19.20;49.50;;;;;;5159148;27;20435;-67
2022/05/28 10:52:04;;;;;;;1.55;0.30;;;19.10;49.60;;;;;;5130296;27;20353;-67
2022/05/28 10:57:52;;;;;;;3.20;0.75;;;19.10;49.40;;;;;;5130326;27;20408;-69
2022/05/28 11:00:27;;;;;;;3.30;0.30;;;19.10;49.30;;;;;;5145883;27;20054;-66
2022/05/28 11:06:09;;;;;;;3.22;0.30;;;19.00;49.20;;;;;;5130175;27;20354;-67
2022/05/28 11:20:02;;;;;;;2.92;0.50;;;19.00;48.80;;;;;;5089438;28;20937;-66
2022/05/28 11:25:28;;;;;;;4.38;0.52;;;18.90;49.10;;;;;;5130256;27;20354;-66
2022/05/28 11:30:40;;;;;;;2.50;0.47;;;18.90;49.10;;;;;;5089438;28;20762;-67
2022/05/28 11:38:35;;;;;;;2.00;0.22;;;18.90;49.10;;;;;;5152691;27;1170947;-67
2022/05/28 11:43:52;;;;;;;2.72;0.30;;;18.90;49.00;;;;;;5130202;27;20422;-68
2022/05/28 11:46:26;;;;;;;3.47;0.60;;;18.90;49.00;;;;;;5128924;28;20082;-67
2022/05/28 11:51:40;;;;;;;2.13;0.32;;;18.90;49.00;;;;;;5130251;27;20444;-65
2022/05/28 11:54:13;;;;;;;3.17;0.55;;;18.80;49.00;;;;;;5130338;27;20108;-65
2022/05/28 11:56:39;;;;;;;2.15;0.30;;;18.80;48.90;;;;;;5130364;27;20114;-66
2022/05/28 12:04:22;;;;;;;3.58;0.65;;;18.70;48.90;;;;;;5049548;27;4051835;-65
2022/05/28 12:07:02;;;;;;;3.80;0.57;;;18.70;49.00;;;;;;5153227;27;20047;-68
2022/05/28 12:09:32;;;;;;;2.10;0.45;;;18.70;48.90;;;;;;5153057;27;20558;-66
2022/05/28 12:14:47;;;;;;;4.25;0.50;;;18.80;48.90;;;;;;5130276;27;20431;-67
2022/05/28 12:20:06;;;;;;;2.38;0.50;;;18.80;48.80;;;;;;5109651;27;20300;-65
2022/05/28 12:31:07;;;;;;;2.33;0.60;;;18.80;48.70;;;;;;5130318;27;20361;-67
2022/05/28 12:33:46;;;;;;;4.30;0.55;;;18.80;48.60;;;;;;5130171;27;20046;-67
2022/05/28 12:36:26;;;;;;;1.92;0.43;;;18.80;48.60;;;;;;5128892;28;20595;-67
2022/05/28 12:39:04;;;;;;;2.10;0.43;;;18.80;48.70;;;;;;5129117;28;20047;-68
2022/05/28 12:41:33;;;;;;;3.28;0.80;;;18.70;48.70;;;;;;5128469;28;20036;-68
2022/05/28 12:44:15;;;;;;;4.65;0.40;;;18.70;48.70;;;;;;5129455;27;20044;-67
2022/05/28 12:54:44;;;;;;;2.88;0.40;;;18.70;48.70;;;;;;5109984;27;20427;-67
2022/05/28 12:57:33;;;;;;;2.83;0.45;;;18.80;48.80;;;;;;5125664;28;20036;-68
2022/05/28 13:00:06;;;;;;;2.25;0.30;;;18.80;48.70;;;;;;5108466;28;20123;-68
2022/05/28 13:02:38;;;;;;;1.65;0.30;;;18.70;48.70;;;;;;5108659;28;20040;-67
2022/05/28 13:08:17;;;;;;;1.58;0.20;;;18.70;48.70;;;;;;5130236;27;20418;-68
2022/05/28 13:10:50;;;;;;;4.20;0.52;;;18.70;48.80;;;;;;5129159;28;20138;-67
2022/05/28 13:30:46;;;;;;;2.88;0.52;;;18.70;48.70;;;;;;5130214;27;20424;-71
2022/05/28 13:33:15;;;;;;;1.60;0.30;;;18.80;48.40;;;;;;5129318;28;20047;-72
2022/05/28 13:35:47;;;;;;;3.25;0.40;;;18.80;48.40;;;;;;5129227;28;20051;-70
2022/05/28 13:38:19;;;;;;;3.45;0.95;;;18.70;48.40;;;;;;5129193;28;20047;-71
2022/05/28 13:40:46;;;;;;;1.40;0.30;;;18.80;48.40;;;;;;5129169;27;20091;-70
2022/05/28 13:43:14;;;;;;;3.17;0.40;;;18.70;48.30;;;;;;5146252;27;20058;-69
2022/05/28 13:45:44;;;;;;;5.03;0.75;;;18.70;48.30;;;;;;5128704;28;20715;-69
2022/05/28 13:48:16;;;;;;;3.42;0.40;;;18.70;48.30;;;;;;5129985;27;20747;-67
2022/05/28 13:50:43;;;;;;;3.15;0.63;;;18.70;48.30;;;;;;5129898;27;20031;-69
2022/05/28 13:53:11;;;;;;;4.05;0.40;;;18.70;48.30;;;;;;5129897;27;20046;-69
2022/05/28 13:55:41;;;;;;;2.20;0.40;;;18.60;48.30;;;;;;5129822;27;20440;-69
2022/05/28 13:58:16;;;;;;;2.03;0.40;;;18.60;48.30;;;;;;5129747;27;20054;-71
2022/05/28 14:00:42;;;;;;;1.98;0.30;;;18.60;48.30;;;;;;5129742;27;20042;-70
2022/05/28 14:03:08;;;;;;;3.95;0.73;;;18.60;48.40;;;;;;5129773;27;20228;-69
2022/05/28 14:05:40;;;;;;;3.17;0.40;;;18.60;48.40;;;;;;5128300;28;20039;-69
2022/05/28 14:08:21;;;;;;;1.63;0.40;;;18.60;48.30;;;;;;5128254;28;20050;-69
2022/05/28 14:10:46;;;;;;;3.67;0.95;;;18.60;48.20;;;;;;5111397;28;20115;-69
2022/05/28 14:13:24;;;;;;;1.95;0.40;;;18.70;48.30;;;;;;5129743;27;20074;-69
2022/05/28 14:15:52;;;;;;;5.07;0.38;;;18.70;48.20;;;;;;5128100;28;20657;-69
2022/05/28 14:18:22;;;;;;;3.17;0.50;;;18.70;48.20;;;;;;5129424;27;20501;-69
2022/05/28 14:20:50;;;;;;;2.90;0.50;;;18.70;48.20;;;;;;5129445;27;20046;-69
2022/05/28 14:23:26;;;;;;;1.85;0.40;;;18.60;48.10;;;;;;5126497;28;20466;-71
2022/05/28 14:25:53;;;;;;;2.13;0.55;;;18.60;48.20;;;;;;5128008;28;20040;-67
2022/05/28 14:28:21;;;;;;;2.20;0.50;;;18.50;48.10;;;;;;5128890;27;20052;-69
2022/05/28 14:30:47;;;;;;;2.75;0.40;;;18.60;48.20;;;;;;5127921;28;20075;-69
2022/05/28 14:33:37;;;;;;;2.28;0.30;;;18.60;48.10;;;;;;5129123;27;20352;-69
2022/05/28 14:36:07;;;;;;;2.83;0.40;;;18.60;48.00;;;;;;5128073;28;20425;-69
2022/05/28 14:38:33;;;;;;;1.33;0.35;;;18.60;48.10;;;;;;5127743;28;20118;-69
2022/05/28 14:41:06;;;;;;;1.70;0.38;;;18.70;48.10;;;;;;5119166;27;20035;-67
2022/05/28 14:43:34;;;;;;;2.35;0.30;;;18.70;48.00;;;;;;5114142;28;20079;-70
2022/05/28 14:46:12;;;;;;;2.50;0.30;;;18.70;47.90;;;;;;5115186;28;20049;-71
2022/05/28 14:48:38;;;;;;;2.60;0.30;;;18.70;47.80;;;;;;5115008;28;20047;-71
2022/05/28 14:51:05;;;;;;;1.27;0.40;;;18.70;47.70;;;;;;5115095;28;20035;-69
2022/05/28 14:53:35;;;;;;;2.05;0.20;;;18.70;47.70;;;;;;5115056;28;20031;-69
2022/05/28 14:56:36;;;;;;;2.45;0.28;;;18.60;47.70;;;;;;5115175;28;20084;-69
2022/05/28 14:59:02;;;;;;;;;;;18.60;47.70;;;;;;5115146;28;20043;-69
2022/05/28 15:01:32;;;;;;;2.33;0.30;;;18.60;47.70;;;;;;5114938;28;20017;-67
2022/05/28 15:04:30;;;;;;;1.40;0.20;;;18.60;47.90;;;;;;5114986;28;20028;-67
2022/05/28 15:09:47;;;;;;;2.03;0.45;;;18.50;47.60;;;;;;5130296;27;20379;-67
2022/05/28 15:15:00;;;;;;;2.78;0.20;;;18.60;47.70;;;;;;5130276;27;20415;-67
2022/05/28 15:17:27;;;;;;;2.40;0.65;;;18.50;47.70;;;;;;5129188;28;20104;-69
2022/05/28 15:19:53;;;;;;;2.28;0.40;;;18.50;47.70;;;;;;5128849;28;20072;-67
2022/05/28 15:22:23;;;;;;;3.72;0.50;;;18.40;47.70;;;;;;5128916;28;20448;-67
2022/05/28 15:24:49;;;;;;;;;;;18.40;47.70;;;;;;5129556;28;20039;-67
2022/05/28 15:27:15;;;;;;;2.33;0.25;;;18.50;47.50;;;;;;5128835;28;19965;-68